sensor_id;sensor_type;location;lat;lon;timestamp;P1;durP1;ratioP1;P2;durP2;ratioP2
25359;SDS011;13311;51.386;0.016;2022-11-28T00:00:42;26.08;;;5.45;;
25359;SDS011;13311;51.386;0.016;2022-11-28T00:05:42;18.70;;;5.82;;
25359;SDS011;13311;51.386;0.016;2022-11-28T00:10:43;25.63;;;6.88;;
25359;SDS011;13311;51.386;0.016;2022-11-28T00:15:44;22.98;;;6.47;;
25359;SDS011;13311;51.386;0.016;2022-11-28T00:21:07;22.98;;;5.00;;
25359;SDS011;13311;51.386;0.016;2022-11-28T00:31:28;22.67;;;5.80;;
25359;SDS011;13311;51.386;0.016;2022-11-28T00:36:32;19.98;;;6.53;;
25359;SDS011;13311;51.386;0.016;2022-11-28T00:41:33;28.00;;;6.25;;
25359;SDS011;13311;51.386;0.016;2022-11-28T00:46:34;28.83;;;6.60;;
25359;SDS011;13311;51.386;0.016;2022-11-28T00:51:35;21.92;;;5.32;;
25359;SDS011;13311;51.386;0.016;2022-11-28T00:56:38;17.20;;;5.82;;
25359;SDS011;13311;51.386;0.016;2022-11-28T01:01:41;19.83;;;5.97;;
25359;SDS011;13311;51.386;0.016;2022-11-28T01:06:44;13.52;;;4.55;;
25359;SDS011;13311;51.386;0.016;2022-11-28T01:11:49;19.27;;;4.50;;
25359;SDS011;13311;51.386;0.016;2022-11-28T01:16:51;15.90;;;4.88;;
25359;SDS011;13311;51.386;0.016;2022-11-28T01:21:52;18.63;;;5.05;;
25359;SDS011;13311;51.386;0.016;2022-11-28T01:26:52;29.20;;;5.95;;
25359;SDS011;13311;51.386;0.016;2022-11-28T01:31:53;21.50;;;4.57;;
25359;SDS011;13311;51.386;0.016;2022-11-28T01:36:54;23.40;;;5.78;;
25359;SDS011;13311;51.386;0.016;2022-11-28T01:41:54;20.92;;;5.22;;
25359;SDS011;13311;51.386;0.016;2022-11-28T01:46:55;24.67;;;5.60;;
25359;SDS011;13311;51.386;0.016;2022-11-28T01:51:57;31.00;;;6.50;;
25359;SDS011;13311;51.386;0.016;2022-11-28T01:57:10;16.38;;;5.47;;
25359;SDS011;13311;51.386;0.016;2022-11-28T02:02:22;19.70;;;4.82;;
25359;SDS011;13311;51.386;0.016;2022-11-28T02:07:52;19.48;;;5.38;;
25359;SDS011;13311;51.386;0.016;2022-11-28T02:13:06;22.40;;;4.85;;
25359;SDS011;13311;51.386;0.016;2022-11-28T02:46:18;22.52;;;5.22;;
25359;SDS011;13311;51.386;0.016;2022-11-28T02:51:48;13.50;;;5.22;;
25359;SDS011;13311;51.386;0.016;2022-11-28T02:56:55;22.25;;;5.18;;
25359;SDS011;13311;51.386;0.016;2022-11-28T03:01:56;22.92;;;4.40;;
25359;SDS011;13311;51.386;0.016;2022-11-28T03:18:00;15.52;;;3.70;;
25359;SDS011;13311;51.386;0.016;2022-11-28T03:23:15;12.82;;;3.83;;
25359;SDS011;13311;51.386;0.016;2022-11-28T03:33:50;9.23;;;3.42;;
25359;SDS011;13311;51.386;0.016;2022-11-28T03:39:08;18.15;;;4.63;;
25359;SDS011;13311;51.386;0.016;2022-11-28T03:44:15;10.85;;;3.20;;
25359;SDS011;13311;51.386;0.016;2022-11-28T03:49:24;22.48;;;3.25;;
25359;SDS011;13311;51.386;0.016;2022-11-28T03:59:37;13.98;;;3.72;;
25359;SDS011;13311;51.386;0.016;2022-11-28T04:09:58;14.02;;;4.35;;
25359;SDS011;13311;51.386;0.016;2022-11-28T04:15:44;13.63;;;3.60;;
25359;SDS011;13311;51.386;0.016;2022-11-28T04:20:57;15.20;;;4.10;;
25359;SDS011;13311;51.386;0.016;2022-11-28T04:26:14;22.67;;;5.60;;
25359;SDS011;13311;51.386;0.016;2022-11-28T04:31:24;18.58;;;5.03;;
25359;SDS011;13311;51.386;0.016;2022-11-28T04:36:25;17.90;;;5.50;;
25359;SDS011;13311;51.386;0.016;2022-11-28T04:41:32;15.55;;;4.43;;
25359;SDS011;13311;51.386;0.016;2022-11-28T04:46:42;16.42;;;5.15;;
25359;SDS011;13311;51.386;0.016;2022-11-28T04:51:49;14.38;;;3.92;;
25359;SDS011;13311;51.386;0.016;2022-11-28T04:57:16;14.10;;;3.85;;
25359;SDS011;13311;51.386;0.016;2022-11-28T05:02:32;18.70;;;4.47;;
25359;SDS011;13311;51.386;0.016;2022-11-28T05:07:34;14.85;;;3.97;;
25359;SDS011;13311;51.386;0.016;2022-11-28T05:12:35;21.95;;;4.65;;
25359;SDS011;13311;51.386;0.016;2022-11-28T05:17:37;20.00;;;4.43;;
25359;SDS011;13311;51.386;0.016;2022-11-28T05:22:37;14.82;;;3.85;;
25359;SDS011;13311;51.386;0.016;2022-11-28T05:27:38;12.60;;;4.57;;
25359;SDS011;13311;51.386;0.016;2022-11-28T05:32:42;13.05;;;4.45;;
25359;SDS011;13311;51.386;0.016;2022-11-28T05:37:42;21.15;;;4.05;;
25359;SDS011;13311;51.386;0.016;2022-11-28T05:42:46;11.50;;;4.03;;
25359;SDS011;13311;51.386;0.016;2022-11-28T05:47:47;14.93;;;4.40;;
25359;SDS011;13311;51.386;0.016;2022-11-28T05:52:47;15.07;;;4.05;;
25359;SDS011;13311;51.386;0.016;2022-11-28T05:57:48;14.60;;;3.63;;
25359;SDS011;13311;51.386;0.016;2022-11-28T06:02:49;15.85;;;3.22;;
25359;SDS011;13311;51.386;0.016;2022-11-28T06:07:50;13.35;;;4.35;;
25359;SDS011;13311;51.386;0.016;2022-11-28T06:12:51;15.57;;;3.38;;
25359;SDS011;13311;51.386;0.016;2022-11-28T06:17:51;14.77;;;3.90;;
25359;SDS011;13311;51.386;0.016;2022-11-28T06:22:52;16.88;;;3.95;;
25359;SDS011;13311;51.386;0.016;2022-11-28T06:27:53;14.82;;;4.40;;
25359;SDS011;13311;51.386;0.016;2022-11-28T06:32:53;9.80;;;4.32;;
25359;SDS011;13311;51.386;0.016;2022-11-28T06:37:54;10.60;;;3.60;;
25359;SDS011;13311;51.386;0.016;2022-11-28T06:42:55;13.20;;;3.35;;
25359;SDS011;13311;51.386;0.016;2022-11-28T06:47:55;19.27;;;4.43;;
25359;SDS011;13311;51.386;0.016;2022-11-28T06:52:56;8.55;;;3.92;;
25359;SDS011;13311;51.386;0.016;2022-11-28T06:57:57;16.92;;;4.07;;
25359;SDS011;13311;51.386;0.016;2022-11-28T07:02:58;8.45;;;4.07;;
25359;SDS011;13311;51.386;0.016;2022-11-28T07:07:59;10.15;;;4.10;;
25359;SDS011;13311;51.386;0.016;2022-11-28T07:12:59;13.30;;;4.95;;
25359;SDS011;13311;51.386;0.016;2022-11-28T07:18:00;13.38;;;3.90;;
25359;SDS011;13311;51.386;0.016;2022-11-28T07:23:01;10.00;;;4.43;;
25359;SDS011;13311;51.386;0.016;2022-11-28T07:28:02;14.52;;;4.72;;
25359;SDS011;13311;51.386;0.016;2022-11-28T07:33:02;14.98;;;4.65;;
25359;SDS011;13311;51.386;0.016;2022-11-28T07:38:03;15.98;;;5.78;;
25359;SDS011;13311;51.386;0.016;2022-11-28T07:43:04;12.80;;;4.82;;
25359;SDS011;13311;51.386;0.016;2022-11-28T07:48:05;10.88;;;4.65;;
25359;SDS011;13311;51.386;0.016;2022-11-28T07:53:05;11.02;;;5.10;;
25359;SDS011;13311;51.386;0.016;2022-11-28T07:58:06;10.02;;;5.20;;
25359;SDS011;13311;51.386;0.016;2022-11-28T08:03:07;14.63;;;6.05;;
25359;SDS011;13311;51.386;0.016;2022-11-28T08:08:07;13.00;;;5.65;;
25359;SDS011;13311;51.386;0.016;2022-11-28T08:13:08;15.35;;;5.68;;
25359;SDS011;13311;51.386;0.016;2022-11-28T08:18:11;7.40;;;5.03;;
25359;SDS011;13311;51.386;0.016;2022-11-28T08:23:12;9.32;;;5.05;;
25359;SDS011;13311;51.386;0.016;2022-11-28T08:28:12;10.40;;;5.47;;
25359;SDS011;13311;51.386;0.016;2022-11-28T08:33:13;15.85;;;7.13;;
25359;SDS011;13311;51.386;0.016;2022-11-28T08:38:14;18.65;;;8.30;;
25359;SDS011;13311;51.386;0.016;2022-11-28T08:43:14;14.10;;;6.88;;
25359;SDS011;13311;51.386;0.016;2022-11-28T08:48:15;17.38;;;7.03;;
25359;SDS011;13311;51.386;0.016;2022-11-28T08:53:16;15.93;;;7.20;;
25359;SDS011;13311;51.386;0.016;2022-11-28T08:58:17;20.67;;;6.57;;
25359;SDS011;13311;51.386;0.016;2022-11-28T09:03:18;13.80;;;5.97;;
25359;SDS011;13311;51.386;0.016;2022-11-28T09:08:20;19.75;;;5.57;;
25359;SDS011;13311;51.386;0.016;2022-11-28T09:13:20;14.70;;;4.88;;
25359;SDS011;13311;51.386;0.016;2022-11-28T09:18:21;12.68;;;4.30;;
25359;SDS011;13311;51.386;0.016;2022-11-28T09:23:22;14.25;;;4.00;;
25359;SDS011;13311;51.386;0.016;2022-11-28T09:28:23;20.80;;;5.28;;
25359;SDS011;13311;51.386;0.016;2022-11-28T09:33:27;14.60;;;4.15;;
25359;SDS011;13311;51.386;0.016;2022-11-28T09:38:28;14.00;;;3.30;;
25359;SDS011;13311;51.386;0.016;2022-11-28T09:43:34;15.40;;;2.92;;
25359;SDS011;13311;51.386;0.016;2022-11-28T09:53:46;10.30;;;3.00;;
25359;SDS011;13311;51.386;0.016;2022-11-28T09:59:27;10.82;;;2.85;;
25359;SDS011;13311;51.386;0.016;2022-11-28T10:09:54;11.23;;;2.90;;
25359;SDS011;13311;51.386;0.016;2022-11-28T10:20:32;15.38;;;2.97;;
25359;SDS011;13311;51.386;0.016;2022-11-28T10:25:46;14.68;;;3.15;;
25359;SDS011;13311;51.386;0.016;2022-11-28T10:30:54;14.98;;;3.08;;
25359;SDS011;13311;51.386;0.016;2022-11-28T10:36:03;9.35;;;2.05;;
25359;SDS011;13311;51.386;0.016;2022-11-28T10:41:13;6.15;;;2.22;;
25359;SDS011;13311;51.386;0.016;2022-11-28T10:52:00;7.97;;;1.77;;
25359;SDS011;13311;51.386;0.016;2022-11-28T10:57:05;6.45;;;1.40;;
25359;SDS011;13311;51.386;0.016;2022-11-28T11:02:18;8.30;;;1.50;;
25359;SDS011;13311;51.386;0.016;2022-11-28T11:07:37;5.63;;;1.88;;
25359;SDS011;13311;51.386;0.016;2022-11-28T11:12:45;5.05;;;1.33;;
25359;SDS011;13311;51.386;0.016;2022-11-28T11:17:51;9.23;;;2.28;;
25359;SDS011;13311;51.386;0.016;2022-11-28T11:22:56;11.93;;;1.67;;
25359;SDS011;13311;51.386;0.016;2022-11-28T11:28:30;9.85;;;2.25;;
25359;SDS011;13311;51.386;0.016;2022-11-28T11:33:47;9.73;;;2.20;;
25359;SDS011;13311;51.386;0.016;2022-11-28T11:49:26;8.88;;;1.77;;
25359;SDS011;13311;51.386;0.016;2022-11-28T11:54:31;5.70;;;1.52;;
25359;SDS011;13311;51.386;0.016;2022-11-28T11:59:33;7.43;;;1.40;;
25359;SDS011;13311;51.386;0.016;2022-11-28T12:04:49;5.10;;;1.35;;
25359;SDS011;13311;51.386;0.016;2022-11-28T12:10:02;3.83;;;1.27;;
25359;SDS011;13311;51.386;0.016;2022-11-28T12:16:09;5.50;;;1.58;;
25359;SDS011;13311;51.386;0.016;2022-11-28T12:20:43;8.35;;;1.27;;
25359;SDS011;13311;51.386;0.016;2022-11-28T12:31:31;3.65;;;1.10;;
25359;SDS011;13311;51.386;0.016;2022-11-28T12:42:10;7.82;;;1.75;;
25359;SDS011;13311;51.386;0.016;2022-11-28T12:53:21;5.75;;;1.58;;
25359;SDS011;13311;51.386;0.016;2022-11-28T13:15:12;7.53;;;1.73;;
25359;SDS011;13311;51.386;0.016;2022-11-28T13:30:56;10.70;;;2.25;;
25359;SDS011;13311;51.386;0.016;2022-11-28T13:36:33;8.13;;;2.22;;
25359;SDS011;13311;51.386;0.016;2022-11-28T13:42:25;12.07;;;2.15;;
25359;SDS011;13311;51.386;0.016;2022-11-28T13:52:29;9.57;;;2.88;;
25359;SDS011;13311;51.386;0.016;2022-11-28T13:57:37;5.37;;;2.30;;
25359;SDS011;13311;51.386;0.016;2022-11-28T14:02:49;6.28;;;2.53;;
25359;SDS011;13311;51.386;0.016;2022-11-28T14:07:53;9.90;;;2.05;;
25359;SDS011;13311;51.386;0.016;2022-11-28T14:29:20;9.43;;;2.88;;
25359;SDS011;13311;51.386;0.016;2022-11-28T14:40:32;17.95;;;4.05;;
25359;SDS011;13311;51.386;0.016;2022-11-28T14:51:15;5.70;;;2.47;;
25359;SDS011;13311;51.386;0.016;2022-11-28T14:56:23;14.45;;;3.05;;
25359;SDS011;13311;51.386;0.016;2022-11-28T15:12:05;9.50;;;4.35;;
25359;SDS011;13311;51.386;0.016;2022-11-28T15:17:17;11.90;;;4.70;;
25359;SDS011;13311;51.386;0.016;2022-11-28T15:22:37;15.10;;;4.50;;
25359;SDS011;13311;51.386;0.016;2022-11-28T15:27:41;8.48;;;4.03;;
25359;SDS011;13311;51.386;0.016;2022-11-28T15:32:42;7.55;;;3.10;;
25359;SDS011;13311;51.386;0.016;2022-11-28T15:37:48;11.40;;;3.45;;
25359;SDS011;13311;51.386;0.016;2022-11-28T15:42:52;12.07;;;6.03;;
25359;SDS011;13311;51.386;0.016;2022-11-28T15:47:54;14.35;;;3.92;;
25359;SDS011;13311;51.386;0.016;2022-11-28T16:03:25;14.00;;;6.07;;
25359;SDS011;13311;51.386;0.016;2022-11-28T16:08:34;19.30;;;6.57;;
25359;SDS011;13311;51.386;0.016;2022-11-28T16:13:44;16.70;;;5.80;;
25359;SDS011;13311;51.386;0.016;2022-11-28T16:18:59;21.15;;;6.20;;
25359;SDS011;13311;51.386;0.016;2022-11-28T16:24:13;18.00;;;6.80;;
25359;SDS011;13311;51.386;0.016;2022-11-28T16:29:34;18.85;;;7.93;;
25359;SDS011;13311;51.386;0.016;2022-11-28T16:34:45;15.57;;;6.50;;
25359;SDS011;13311;51.386;0.016;2022-11-28T16:39:58;7.85;;;4.95;;
25359;SDS011;13311;51.386;0.016;2022-11-28T16:45:14;10.80;;;5.40;;
25359;SDS011;13311;51.386;0.016;2022-11-28T16:50:19;12.50;;;6.28;;
25359;SDS011;13311;51.386;0.016;2022-11-28T17:00:28;12.82;;;5.13;;
25359;SDS011;13311;51.386;0.016;2022-11-28T17:05:29;9.82;;;6.30;;
25359;SDS011;13311;51.386;0.016;2022-11-28T17:10:30;8.50;;;5.38;;
25359;SDS011;13311;51.386;0.016;2022-11-28T17:15:31;9.50;;;5.25;;
25359;SDS011;13311;51.386;0.016;2022-11-28T17:20:32;11.02;;;5.60;;
25359;SDS011;13311;51.386;0.016;2022-11-28T17:25:33;12.48;;;6.55;;
25359;SDS011;13311;51.386;0.016;2022-11-28T17:30:34;13.00;;;4.85;;
25359;SDS011;13311;51.386;0.016;2022-11-28T17:35:35;13.30;;;7.35;;
25359;SDS011;13311;51.386;0.016;2022-11-28T17:40:44;15.30;;;8.43;;
25359;SDS011;13311;51.386;0.016;2022-11-28T17:45:45;16.15;;;10.55;;
25359;SDS011;13311;51.386;0.016;2022-11-28T17:50:48;15.38;;;10.02;;
25359;SDS011;13311;51.386;0.016;2022-11-28T17:55:50;17.92;;;10.15;;
25359;SDS011;13311;51.386;0.016;2022-11-28T18:00:57;19.42;;;9.57;;
25359;SDS011;13311;51.386;0.016;2022-11-28T18:05:58;13.52;;;7.65;;
25359;SDS011;13311;51.386;0.016;2022-11-28T18:11:06;14.35;;;7.70;;
25359;SDS011;13311;51.386;0.016;2022-11-28T18:16:09;17.95;;;9.60;;
25359;SDS011;13311;51.386;0.016;2022-11-28T18:21:15;19.77;;;10.95;;
25359;SDS011;13311;51.386;0.016;2022-11-28T18:26:17;12.77;;;8.63;;
25359;SDS011;13311;51.386;0.016;2022-11-28T18:31:23;16.13;;;10.25;;
25359;SDS011;13311;51.386;0.016;2022-11-28T18:36:27;14.88;;;9.70;;
25359;SDS011;13311;51.386;0.016;2022-11-28T18:41:29;15.07;;;10.15;;
25359;SDS011;13311;51.386;0.016;2022-11-28T18:46:31;15.50;;;11.02;;
25359;SDS011;13311;51.386;0.016;2022-11-28T18:51:33;24.00;;;14.73;;
25359;SDS011;13311;51.386;0.016;2022-11-28T18:56:34;15.23;;;9.77;;
25359;SDS011;13311;51.386;0.016;2022-11-28T19:01:35;24.85;;;12.77;;
25359;SDS011;13311;51.386;0.016;2022-11-28T19:06:36;16.85;;;8.93;;
25359;SDS011;13311;51.386;0.016;2022-11-28T19:11:40;14.45;;;6.20;;
25359;SDS011;13311;51.386;0.016;2022-11-28T19:16:41;12.20;;;5.75;;
25359;SDS011;13311;51.386;0.016;2022-11-28T19:21:43;17.73;;;9.27;;
25359;SDS011;13311;51.386;0.016;2022-11-28T19:26:44;13.70;;;7.32;;
25359;SDS011;13311;51.386;0.016;2022-11-28T19:31:45;15.23;;;6.45;;
25359;SDS011;13311;51.386;0.016;2022-11-28T19:36:48;11.68;;;5.65;;
25359;SDS011;13311;51.386;0.016;2022-11-28T19:41:50;11.25;;;6.05;;
25359;SDS011;13311;51.386;0.016;2022-11-28T19:46:53;10.57;;;5.95;;
25359;SDS011;13311;51.386;0.016;2022-11-28T19:51:55;11.65;;;6.80;;
25359;SDS011;13311;51.386;0.016;2022-11-28T19:56:55;11.85;;;7.20;;
25359;SDS011;13311;51.386;0.016;2022-11-28T20:01:56;16.05;;;8.43;;
25359;SDS011;13311;51.386;0.016;2022-11-28T20:06:57;16.17;;;9.70;;
25359;SDS011;13311;51.386;0.016;2022-11-28T20:11:58;14.32;;;9.48;;
25359;SDS011;13311;51.386;0.016;2022-11-28T20:16:59;15.88;;;9.77;;
25359;SDS011;13311;51.386;0.016;2022-11-28T20:21:59;14.73;;;9.63;;
25359;SDS011;13311;51.386;0.016;2022-11-28T20:27:00;14.18;;;8.40;;
25359;SDS011;13311;51.386;0.016;2022-11-28T20:32:01;14.43;;;8.25;;
25359;SDS011;13311;51.386;0.016;2022-11-28T20:37:01;13.05;;;8.20;;
25359;SDS011;13311;51.386;0.016;2022-11-28T20:42:02;16.90;;;8.52;;
25359;SDS011;13311;51.386;0.016;2022-11-28T20:47:03;14.57;;;7.78;;
25359;SDS011;13311;51.386;0.016;2022-11-28T20:52:04;12.85;;;7.28;;
25359;SDS011;13311;51.386;0.016;2022-11-28T20:57:04;12.25;;;7.55;;
25359;SDS011;13311;51.386;0.016;2022-11-28T21:02:05;11.68;;;6.25;;
25359;SDS011;13311;51.386;0.016;2022-11-28T21:07:06;13.52;;;7.13;;
25359;SDS011;13311;51.386;0.016;2022-11-28T21:12:06;14.10;;;7.13;;
25359;SDS011;13311;51.386;0.016;2022-11-28T21:17:07;16.02;;;7.85;;
25359;SDS011;13311;51.386;0.016;2022-11-28T21:22:08;14.57;;;9.13;;
25359;SDS011;13311;51.386;0.016;2022-11-28T21:27:08;17.02;;;9.57;;
25359;SDS011;13311;51.386;0.016;2022-11-28T21:32:09;11.82;;;7.35;;
25359;SDS011;13311;51.386;0.016;2022-11-28T21:37:12;21.23;;;10.13;;
25359;SDS011;13311;51.386;0.016;2022-11-28T21:42:13;16.70;;;10.18;;
25359;SDS011;13311;51.386;0.016;2022-11-28T21:47:13;18.13;;;9.68;;
25359;SDS011;13311;51.386;0.016;2022-11-28T21:52:14;15.82;;;9.00;;
25359;SDS011;13311;51.386;0.016;2022-11-28T21:57:15;12.77;;;9.32;;
25359;SDS011;13311;51.386;0.016;2022-11-28T22:02:17;16.35;;;7.53;;
25359;SDS011;13311;51.386;0.016;2022-11-28T22:07:17;14.57;;;8.82;;
25359;SDS011;13311;51.386;0.016;2022-11-28T22:12:18;17.10;;;10.38;;
25359;SDS011;13311;51.386;0.016;2022-11-28T22:17:19;18.80;;;10.38;;
25359;SDS011;13311;51.386;0.016;2022-11-28T22:22:19;15.98;;;10.07;;
25359;SDS011;13311;51.386;0.016;2022-11-28T22:27:21;12.50;;;8.75;;
25359;SDS011;13311;51.386;0.016;2022-11-28T22:32:21;10.82;;;7.53;;
25359;SDS011;13311;51.386;0.016;2022-11-28T22:37:22;10.23;;;7.28;;
25359;SDS011;13311;51.386;0.016;2022-11-28T22:42:23;10.25;;;7.47;;
25359;SDS011;13311;51.386;0.016;2022-11-28T22:47:24;10.93;;;7.65;;
25359;SDS011;13311;51.386;0.016;2022-11-28T22:52:24;9.85;;;7.30;;
25359;SDS011;13311;51.386;0.016;2022-11-28T22:57:25;11.35;;;7.00;;
25359;SDS011;13311;51.386;0.016;2022-11-28T23:02:26;12.48;;;7.30;;
25359;SDS011;13311;51.386;0.016;2022-11-28T23:07:27;10.85;;;7.20;;
25359;SDS011;13311;51.386;0.016;2022-11-28T23:12:28;11.50;;;7.10;;
25359;SDS011;13311;51.386;0.016;2022-11-28T23:17:29;14.32;;;7.20;;
25359;SDS011;13311;51.386;0.016;2022-11-28T23:22:31;10.70;;;6.65;;
25359;SDS011;13311;51.386;0.016;2022-11-28T23:27:33;12.52;;;7.80;;
25359;SDS011;13311;51.386;0.016;2022-11-28T23:32:33;9.07;;;6.90;;
25359;SDS011;13311;51.386;0.016;2022-11-28T23:37:37;11.85;;;6.90;;
25359;SDS011;13311;51.386;0.016;2022-11-28T23:42:38;12.85;;;7.15;;
25359;SDS011;13311;51.386;0.016;2022-11-28T23:47:40;9.32;;;7.00;;
25359;SDS011;13311;51.386;0.016;2022-11-28T23:52:41;11.73;;;7.05;;
25359;SDS011;13311;51.386;0.016;2022-11-28T23:57:41;13.88;;;7.65;;
